createdAt,value
2023-03-01T00:00:24.996Z,20.40
2023-03-01T00:03:26.305Z,19.60
2023-03-01T00:06:30.328Z,24.02
2023-03-01T00:09:31.892Z,18.48
2023-03-01T00:12:34.476Z,19.13
2023-03-01T00:15:39.846Z,18.30
2023-03-01T00:18:42.543Z,22.83
2023-03-01T00:21:44.117Z,20.42
2023-03-01T00:24:46.763Z,22.45
2023-03-01T00:27:49.194Z,19.98
2023-03-01T00:30:52.445Z,20.30
2023-03-01T00:34:00.538Z,20.70
2023-03-01T00:37:05.401Z,21.38
2023-03-01T00:40:09.963Z,21.50
2023-03-01T00:43:11.326Z,21.35
2023-03-01T00:46:16.485Z,21.03
2023-03-01T00:49:17.831Z,20.83
2023-03-01T00:52:20.352Z,23.05
2023-03-01T00:55:22.218Z,20.65
2023-03-01T00:58:24.757Z,20.27
2023-03-01T01:01:30.015Z,18.90
2023-03-01T01:07:53.773Z,19.92
2023-03-01T01:10:55.062Z,18.65
2023-03-01T01:13:59.021Z,18.80
2023-03-01T01:20:22.161Z,15.70
2023-03-01T01:23:24.708Z,19.38
2023-03-01T01:26:27.968Z,18.65
2023-03-01T01:29:30.522Z,17.52
2023-03-01T01:32:32.494Z,17.97
2023-03-01T01:35:35.088Z,17.83
2023-03-01T01:38:38.197Z,18.73
2023-03-01T01:41:43.118Z,20.13
2023-03-01T01:44:48.447Z,18.95
2023-03-01T01:47:51.382Z,19.60
2023-03-01T01:51:00.780Z,18.70
2023-03-01T01:54:02.272Z,18.23
2023-03-01T01:57:09.298Z,20.63
2023-03-01T02:00:14.676Z,19.45
2023-03-01T02:03:21.449Z,19.07
2023-03-01T02:06:30.688Z,20.93
2023-03-01T02:09:32.998Z,19.10
2023-03-01T02:12:37.147Z,19.25
2023-03-01T02:15:40.222Z,21.15
2023-03-01T02:18:45.226Z,19.40
2023-03-01T02:21:57.369Z,19.83
2023-03-01T02:25:11.451Z,22.35
2023-03-01T02:28:26.924Z,21.23
2023-03-01T02:31:44.838Z,20.70
2023-03-01T02:34:46.298Z,21.10
2023-03-01T02:37:50.098Z,20.37
2023-03-01T02:40:52.687Z,21.55
2023-03-01T02:43:56.037Z,20.77
2023-03-01T02:47:01.653Z,20.38
2023-03-01T02:50:12.916Z,19.30
2023-03-01T02:53:20.294Z,20.27
2023-03-01T02:56:23.153Z,20.65
2023-03-01T02:59:30.999Z,21.20
2023-03-01T03:02:36.369Z,22.13
2023-03-01T03:05:38.912Z,18.50
2023-03-01T03:08:41.507Z,18.83
2023-03-01T03:11:43.560Z,21.95
2023-03-01T03:14:46.754Z,20.10
2023-03-01T03:17:48.520Z,18.33
2023-03-01T03:20:54.520Z,20.43
2023-03-01T03:23:59.277Z,20.87
2023-03-01T03:27:00.659Z,22.30
2023-03-01T03:30:04.240Z,18.83
2023-03-01T03:33:07.398Z,19.92
2023-03-01T03:36:14.297Z,19.60
2023-03-01T03:39:17.504Z,20.67
2023-03-01T03:42:19.967Z,21.02
2023-03-01T03:45:23.878Z,18.98
2023-03-01T03:48:26.804Z,18.55
2023-03-01T03:51:28.106Z,21.40
2023-03-01T03:54:30.685Z,19.87
2023-03-01T03:57:31.983Z,19.63
2023-03-01T04:00:35.229Z,19.13
2023-03-01T04:03:36.586Z,19.10
2023-03-01T04:06:39.264Z,20.27
2023-03-01T04:09:41.928Z,21.30
2023-03-01T04:12:45.002Z,19.45
2023-03-01T04:15:48.595Z,19.42
2023-03-01T04:22:19.795Z,17.47
2023-03-01T04:25:21.084Z,16.33
2023-03-01T04:28:26.015Z,20.00
2023-03-01T04:31:28.622Z,21.00
2023-03-01T04:34:31.268Z,18.73
2023-03-01T04:37:32.605Z,19.07
2023-03-01T04:40:34.607Z,16.60
2023-03-01T04:43:37.158Z,18.38
2023-03-01T04:46:40.366Z,18.60
2023-03-01T04:49:41.860Z,17.65
2023-03-01T04:52:43.769Z,16.90
2023-03-01T04:55:45.093Z,17.43
2023-03-01T04:58:47.196Z,17.25
2023-03-01T05:01:49.145Z,17.85
2023-03-01T05:04:51.687Z,18.58
2023-03-01T05:07:54.522Z,21.63
2023-03-01T05:10:57.080Z,19.43
2023-03-01T05:13:58.782Z,18.23
2023-03-01T05:20:23.698Z,16.80
2023-03-01T05:23:25.580Z,17.00
2023-03-01T05:26:30.139Z,20.37
2023-03-01T05:29:35.033Z,18.25
2023-03-01T05:32:38.318Z,17.88
2023-03-01T05:35:40.721Z,17.98
2023-03-01T05:38:42.514Z,17.17
2023-03-01T05:41:45.057Z,19.10
2023-03-01T05:44:46.313Z,20.52
2023-03-01T05:47:50.928Z,19.58
2023-03-01T05:50:52.247Z,18.35
2023-03-01T05:53:54.824Z,19.43
2023-03-01T05:56:56.548Z,17.47
2023-03-01T05:59:57.878Z,16.92
2023-03-01T06:03:01.190Z,18.10
2023-03-01T06:06:02.785Z,19.17
2023-03-01T06:09:04.955Z,18.07
2023-03-01T06:12:07.875Z,20.23
2023-03-01T06:15:10.557Z,20.35
2023-03-01T06:18:12.746Z,20.95
2023-03-01T06:21:14.041Z,17.83
2023-03-01T06:24:16.540Z,19.13
2023-03-01T06:27:17.816Z,15.87
2023-03-01T06:30:20.681Z,19.48
2023-03-01T06:33:24.527Z,20.08
2023-03-01T06:36:26.000Z,20.52
2023-03-01T06:39:29.818Z,19.43
2023-03-01T06:42:31.085Z,18.23
2023-03-01T06:45:33.820Z,19.88
2023-03-01T06:48:35.940Z,21.00
2023-03-01T06:51:38.535Z,19.95
2023-03-01T06:54:39.813Z,24.33
2023-03-01T06:57:42.383Z,22.13
2023-03-01T07:00:44.497Z,23.30
2023-03-01T07:03:46.465Z,26.02
2023-03-01T07:06:55.699Z,22.33
2023-03-01T07:09:56.980Z,25.73
2023-03-01T07:13:00.482Z,21.63
2023-03-01T07:16:01.832Z,24.40
2023-03-01T07:19:06.912Z,26.25
2023-03-01T07:22:09.512Z,26.88
2023-03-01T07:25:12.816Z,28.70
2023-03-01T07:28:15.356Z,23.87
2023-03-01T07:31:16.674Z,24.55
2023-03-01T07:34:19.927Z,23.42
2023-03-01T07:37:22.488Z,23.55
2023-03-01T07:40:23.839Z,24.43
2023-03-01T07:43:25.194Z,26.67
2023-03-01T07:46:28.164Z,23.63
2023-03-01T07:49:30.191Z,23.23
2023-03-01T07:52:32.839Z,23.60
2023-03-01T07:55:34.126Z,22.77
2023-03-01T07:58:37.274Z,21.63
2023-03-01T08:01:40.058Z,23.40
2023-03-01T08:04:42.291Z,22.05
2023-03-01T08:07:44.844Z,19.17
2023-03-01T08:10:46.144Z,23.47
2023-03-01T08:13:51.092Z,19.33
2023-03-01T08:16:52.847Z,19.25
2023-03-01T08:19:55.126Z,16.95
2023-03-01T08:22:58.632Z,16.60
2023-03-01T08:26:08.423Z,16.23
2023-03-01T08:29:10.975Z,15.63
2023-03-01T08:32:12.417Z,14.52
2023-03-01T08:35:14.638Z,12.90
2023-03-01T08:38:16.681Z,14.10
2023-03-01T08:41:18.136Z,13.73
2023-03-01T08:44:22.344Z,12.27
2023-03-01T08:47:24.953Z,12.27
2023-03-01T08:50:26.898Z,10.77
2023-03-01T08:53:29.436Z,9.95
2023-03-01T08:56:30.953Z,10.67
2023-03-01T08:59:37.583Z,11.03
2023-03-01T09:06:02.741Z,10.60
2023-03-01T09:09:08.237Z,12.98
2023-03-01T09:12:09.548Z,10.57
2023-03-01T09:15:11.330Z,10.70
2023-03-01T09:18:13.921Z,13.90
2023-03-01T09:21:18.284Z,10.82
2023-03-01T09:24:22.423Z,12.65
2023-03-01T09:27:26.181Z,11.32
2023-03-01T09:30:27.653Z,11.70
2023-03-01T09:33:30.523Z,10.75
2023-03-01T09:36:33.832Z,10.88
2023-03-01T09:43:03.839Z,10.77
2023-03-01T09:46:09.068Z,12.70
2023-03-01T09:49:19.321Z,12.38
2023-03-01T09:52:31.502Z,10.77
2023-03-01T09:55:40.858Z,10.15
2023-03-01T09:58:54.025Z,10.15
2023-03-01T10:02:01.098Z,9.83
2023-03-01T10:05:24.724Z,10.43
2023-03-01T10:08:37.610Z,10.30
2023-03-01T10:11:46.616Z,9.13
2023-03-01T10:14:56.243Z,8.35
2023-03-01T10:18:07.224Z,9.85
2023-03-01T10:21:15.971Z,8.13
2023-03-01T10:27:50.006Z,6.72
2023-03-01T10:30:51.574Z,7.45
2023-03-01T10:33:55.326Z,7.22
2023-03-01T10:37:01.706Z,8.07
2023-03-01T10:40:07.338Z,8.57
2023-03-01T10:43:14.105Z,6.60
2023-03-01T10:46:30.914Z,9.43
2023-03-01T10:49:32.489Z,7.65
2023-03-01T10:52:36.016Z,7.57
2023-03-01T10:55:40.003Z,6.80
2023-03-01T10:58:58.541Z,8.10
2023-03-01T11:02:25.011Z,6.63
2023-03-01T11:05:29.925Z,6.90
2023-03-01T11:08:35.173Z,6.57
2023-03-01T11:14:58.142Z,8.93
2023-03-01T11:18:12.711Z,7.25
2023-03-01T11:21:16.503Z,8.85
2023-03-01T11:24:20.664Z,9.87
2023-03-01T11:27:26.514Z,6.57
2023-03-01T11:30:34.109Z,9.13
2023-03-01T11:33:41.844Z,7.53
2023-03-01T11:36:51.161Z,5.90
2023-03-01T11:39:59.296Z,8.27
2023-03-01T11:43:11.657Z,7.50
2023-03-01T11:46:58.626Z,8.90
2023-03-01T11:50:19.083Z,6.82
2023-03-01T11:53:47.354Z,8.35
2023-03-01T11:56:55.229Z,8.30
2023-03-01T12:00:33.147Z,8.20
2023-03-01T12:03:51.106Z,9.57
2023-03-01T12:06:58.966Z,7.85
2023-03-01T12:10:23.539Z,6.30
2023-03-01T12:17:49.774Z,6.80
2023-03-01T12:21:00.074Z,7.32
2023-03-01T12:24:32.365Z,6.05
2023-03-01T12:27:51.277Z,7.10
2023-03-01T12:31:08.167Z,7.03
2023-03-01T12:34:27.432Z,6.73
2023-03-01T12:37:39.763Z,5.95
2023-03-01T12:41:02.164Z,5.57
2023-03-01T12:44:14.324Z,7.22
2023-03-01T12:50:51.777Z,6.27
2023-03-01T12:53:56.356Z,6.32
2023-03-01T12:57:04.061Z,5.45
2023-03-01T13:00:22.566Z,7.32
2023-03-01T13:07:05.345Z,6.13
2023-03-01T13:10:24.806Z,5.90
2023-03-01T13:13:28.056Z,7.47
2023-03-01T13:20:15.333Z,5.40
2023-03-01T13:23:26.968Z,5.72
2023-03-01T13:26:30.469Z,6.63
2023-03-01T13:29:45.001Z,4.38
2023-03-01T13:32:46.509Z,4.53
2023-03-01T13:35:47.932Z,4.57
2023-03-01T13:38:58.790Z,6.63
2023-03-01T13:42:02.537Z,5.47
2023-03-01T13:45:06.938Z,4.80
2023-03-01T13:48:18.538Z,5.37
2023-03-01T13:51:25.476Z,5.40
2023-03-01T13:54:31.335Z,6.65
2023-03-01T13:57:37.971Z,6.28
2023-03-01T14:00:40.502Z,7.63
2023-03-01T14:03:44.326Z,7.03
2023-03-01T14:06:46.893Z,6.63
2023-03-01T14:09:52.848Z,6.00
2023-03-01T14:13:15.680Z,5.13
2023-03-01T14:16:32.001Z,5.78
2023-03-01T14:19:35.790Z,5.97
2023-03-01T14:22:38.786Z,4.87
2023-03-01T14:25:48.038Z,6.47
2023-03-01T14:28:52.117Z,4.63
2023-03-01T14:31:53.960Z,6.10
2023-03-01T14:34:57.787Z,5.83
2023-03-01T14:38:00.667Z,6.07
2023-03-01T14:41:06.805Z,4.78
2023-03-01T14:44:16.256Z,4.72
2023-03-01T14:47:27.330Z,5.75
2023-03-01T14:50:30.840Z,6.53
2023-03-01T14:53:42.693Z,6.20
2023-03-01T14:56:52.251Z,4.93
2023-03-01T14:59:56.846Z,6.20
2023-03-01T15:03:11.360Z,5.57
2023-03-01T15:06:16.678Z,5.87
2023-03-01T15:09:19.609Z,5.90
2023-03-01T15:12:40.008Z,4.75
2023-03-01T15:15:44.197Z,5.55
2023-03-01T15:18:48.850Z,4.03
2023-03-01T15:21:50.842Z,4.20
2023-03-01T15:24:53.722Z,4.37
2023-03-01T15:27:57.402Z,3.88
2023-03-01T15:31:03.083Z,5.15
2023-03-01T15:34:23.770Z,3.97
2023-03-01T15:37:44.410Z,4.10
2023-03-01T15:40:50.880Z,3.77
2023-03-01T15:43:55.714Z,4.53
2023-03-01T15:46:59.677Z,4.20
2023-03-01T15:50:01.844Z,3.85
2023-03-01T15:53:08.375Z,4.43
2023-03-01T15:56:09.680Z,4.33
2023-03-01T15:59:14.844Z,4.45
2023-03-01T16:02:16.900Z,4.88
2023-03-01T16:05:22.810Z,4.53
2023-03-01T16:08:24.113Z,3.80
2023-03-01T16:11:26.670Z,3.77
2023-03-01T16:14:28.222Z,4.70
2023-03-01T16:20:50.999Z,3.00
2023-03-01T16:23:54.188Z,4.33
2023-03-01T16:26:57.044Z,4.37
2023-03-01T16:29:58.545Z,3.30
2023-03-01T16:33:00.501Z,4.10
2023-03-01T16:36:02.634Z,3.00
2023-03-01T16:39:04.186Z,3.93
2023-03-01T16:42:05.571Z,4.73
2023-03-01T16:45:18.428Z,6.68
2023-03-01T16:48:24.616Z,5.70
2023-03-01T16:51:27.180Z,3.72
2023-03-01T16:54:28.856Z,3.60
2023-03-01T16:57:31.933Z,3.93
2023-03-01T17:00:33.360Z,4.30
2023-03-01T17:03:36.278Z,5.10
2023-03-01T17:06:38.642Z,4.03
2023-03-01T17:09:39.929Z,3.87
2023-03-01T17:12:42.165Z,3.97
2023-03-01T17:15:44.749Z,4.00
2023-03-01T17:18:48.133Z,3.42
2023-03-01T17:21:49.568Z,4.32
2023-03-01T17:24:51.856Z,4.37
2023-03-01T17:27:53.288Z,3.13
2023-03-01T17:30:54.996Z,4.65
2023-03-01T17:33:59.310Z,4.28
2023-03-01T17:37:02.006Z,4.53
2023-03-01T17:40:04.061Z,4.13
2023-03-01T17:43:06.311Z,4.03
2023-03-01T17:46:08.163Z,4.05
2023-03-01T17:52:30.551Z,6.03
2023-03-01T17:55:32.754Z,4.03
2023-03-01T17:58:34.239Z,4.53
2023-03-01T18:01:36.598Z,5.50
2023-03-01T18:04:38.707Z,6.05
2023-03-01T18:07:41.026Z,6.03
2023-03-01T18:10:43.588Z,5.27
2023-03-01T18:13:47.256Z,6.53
2023-03-01T18:16:48.584Z,6.13
2023-03-01T18:23:13.512Z,8.10
2023-03-01T18:26:18.870Z,7.83
2023-03-01T18:32:40.979Z,9.73
2023-03-01T18:35:44.057Z,8.70
2023-03-01T18:38:45.905Z,8.75
2023-03-01T18:41:47.206Z,10.07
2023-03-01T18:44:50.035Z,8.87
2023-03-01T18:47:52.635Z,8.45
2023-03-01T18:50:56.631Z,13.85
2023-03-01T18:53:59.754Z,12.00
2023-03-01T18:57:01.158Z,12.03
2023-03-01T19:00:03.367Z,13.03
2023-03-01T19:03:05.949Z,10.93
2023-03-01T19:06:08.742Z,12.60
2023-03-01T19:09:12.272Z,13.77
2023-03-01T19:12:13.833Z,15.00
2023-03-01T19:15:16.953Z,11.93
2023-03-01T19:18:18.439Z,15.30
2023-03-01T19:21:22.287Z,15.60
2023-03-01T19:24:23.630Z,18.38
2023-03-01T19:27:26.285Z,18.60
2023-03-01T19:30:27.695Z,23.03
2023-03-01T19:33:29.916Z,21.95
2023-03-01T19:36:32.655Z,23.55
2023-03-01T19:39:35.434Z,25.13
2023-03-01T19:42:36.878Z,23.07
2023-03-01T19:45:39.622Z,21.30
2023-03-01T19:48:41.410Z,17.55
2023-03-01T19:51:43.374Z,17.97
2023-03-01T19:54:45.901Z,17.47
2023-03-01T19:57:47.233Z,13.18
2023-03-01T20:01:08.012Z,12.27
2023-03-01T20:04:11.338Z,14.30
2023-03-01T20:07:13.255Z,14.10
2023-03-01T20:10:14.774Z,14.47
2023-03-01T20:13:16.180Z,12.77
2023-03-01T20:16:20.534Z,11.38
2023-03-01T20:19:21.894Z,12.77
2023-03-01T20:22:24.111Z,10.27
2023-03-01T20:25:25.454Z,8.67
2023-03-01T20:28:27.974Z,8.85
2023-03-01T20:31:29.844Z,8.57
2023-03-01T20:34:32.709Z,8.52
2023-03-01T20:37:35.929Z,9.57
2023-03-01T20:40:37.660Z,8.87
2023-03-01T20:43:41.947Z,7.82
2023-03-01T20:46:43.288Z,7.75
2023-03-01T20:49:46.209Z,9.95
2023-03-01T20:52:49.592Z,8.00
2023-03-01T20:55:50.906Z,7.73
2023-03-01T21:05:37.096Z,9.98
2023-03-01T21:08:41.507Z,12.00
2023-03-01T21:11:43.319Z,10.07
2023-03-01T21:14:47.689Z,10.85
2023-03-01T21:17:49.211Z,10.80
2023-03-01T21:20:51.740Z,10.32
2023-03-01T21:23:55.105Z,10.70
2023-03-01T21:26:57.961Z,11.30
2023-03-01T21:29:59.260Z,11.18
2023-03-01T21:33:01.786Z,11.93
2023-03-01T21:36:05.465Z,11.68
2023-03-01T21:39:08.925Z,14.20
2023-03-01T21:42:10.269Z,12.60
2023-03-01T21:45:13.055Z,12.27
2023-03-01T21:48:15.759Z,13.57
2023-03-01T21:51:18.778Z,11.90
2023-03-01T21:54:22.011Z,15.63
2023-03-01T21:57:24.551Z,20.37
2023-03-01T22:00:27.315Z,21.90
2023-03-01T22:03:29.975Z,29.05
2023-03-01T22:06:33.364Z,28.27
2023-03-01T22:09:36.782Z,27.90
2023-03-01T22:12:38.098Z,25.33
2023-03-01T22:15:42.226Z,21.13
2023-03-01T22:18:44.788Z,19.60
2023-03-01T22:21:50.249Z,20.00
2023-03-01T22:24:52.202Z,19.57
2023-03-01T22:27:54.758Z,18.97
2023-03-01T22:30:56.168Z,17.92
2023-03-01T22:34:03.098Z,18.90
2023-03-01T22:37:04.421Z,19.02
2023-03-01T22:40:10.500Z,17.73
2023-03-01T22:43:13.118Z,21.67
2023-03-01T22:46:18.081Z,18.30
2023-03-01T22:49:21.406Z,19.33
2023-03-01T22:52:22.928Z,20.30
2023-03-01T22:55:28.597Z,17.37
2023-03-01T22:58:31.236Z,21.50
2023-03-01T23:01:32.646Z,19.20
2023-03-01T23:04:35.136Z,19.07
2023-03-01T23:07:37.024Z,19.55
2023-03-01T23:10:41.907Z,22.20
2023-03-01T23:13:43.628Z,22.67
2023-03-01T23:16:46.598Z,23.23
2023-03-01T23:19:50.725Z,21.87
2023-03-01T23:22:52.917Z,22.40
2023-03-01T23:25:57.839Z,23.38
2023-03-01T23:29:00.383Z,25.38
2023-03-01T23:32:03.573Z,25.00
2023-03-01T23:35:06.486Z,21.87
2023-03-01T23:38:09.007Z,22.40
2023-03-01T23:41:12.534Z,26.35
2023-03-01T23:44:15.981Z,23.90
2023-03-01T23:47:18.531Z,21.97
2023-03-01T23:50:19.824Z,21.70
2023-03-01T23:56:45.481Z,20.52
2023-03-01T23:59:48.015Z,21.65
